Time;durP1;ratioP1;P1;durP2;ratioP2;P2;SDS_P1;SDS_P2;PMS_P1;PMS_P2;Temp;Humidity;BMP_temperature;BMP_pressure;BME280_temperature;BME280_humidity;BME280_pressure;Samples;Min_cycle;Max_cycle;Signal;HPM_P1;HPM_P2
2023/04/02 00:01:25;;;;;;;11.80;9.10;;;;;;;;;;5004241;28;20401;-71
2023/04/02 00:03:58;;;;;;;14.97;10.00;;;;;;;;;;5009914;28;20261;-70
2023/04/02 00:06:31;;;;;;;13.60;9.27;;;;;;;;;;5007505;28;20183;-70
2023/04/02 00:09:03;;;;;;;13.43;10.27;;;;;;;;;;5008237;28;20183;-71
2023/04/02 00:11:34;;;;;;;15.07;10.00;;;;;;;;;;5009183;28;20190;-71
2023/04/02 00:14:00;;;;;;;16.80;10.87;;;;;;;;;;5009669;28;20209;-69
2023/04/02 00:16:26;;;;;;;14.40;10.63;;;;;;;;;;5013692;28;20214;-71
2023/04/02 00:18:53;;;;;;;16.80;10.00;;;;;;;;;;5006337;28;20279;-71
2023/04/02 00:21:20;;;;;;;15.47;10.60;;;;;;;;;;5007917;28;20562;-70
2023/04/02 00:23:45;;;;;;;14.53;10.50;;;;;;;;;;5009061;28;20227;-70
2023/04/02 00:26:20;;;;;;;20.63;11.23;;;;;;;;;;5006344;28;20251;-71
2023/04/02 00:28:46;;;;;;;15.60;9.77;;;;;;;;;;5010198;28;20179;-71
2023/04/02 00:31:11;;;;;;;13.27;9.43;;;;;;;;;;5012908;28;20185;-71
2023/04/02 00:33:36;;;;;;;12.87;9.90;;;;;;;;;;5009483;28;20680;-70
2023/04/02 00:36:04;;;;;;;12.60;9.13;;;;;;;;;;5012799;28;20182;-71
2023/04/02 00:38:31;;;;;;;13.93;10.50;;;;;;;;;;5008597;28;20190;-71
2023/04/02 00:40:57;;;;;;;15.70;10.93;;;;;;;;;;5012151;28;20248;-71
2023/04/02 00:43:27;;;;;;;15.20;10.33;;;;;;;;;;5009754;28;20582;-71
2023/04/02 00:45:54;;;;;;;19.60;11.70;;;;;;;;;;5008056;28;20494;-71
2023/04/02 00:48:28;;;;;;;16.20;10.40;;;;;;;;;;5013559;28;20178;-70
2023/04/02 00:50:53;;;;;;;15.10;9.97;;;;;;;;;;5009927;28;20190;-70
2023/04/02 00:53:26;;;;;;;14.40;9.90;;;;;;;;;;5008363;28;20199;-71
2023/04/02 00:55:52;;;;;;;14.00;10.23;;;;;;;;;;5005598;28;20186;-71
2023/04/02 00:58:28;;;;;;;14.10;10.20;;;;;;;;;;5008814;28;20749;-71
2023/04/02 01:00:54;;;;;;;15.30;10.23;;;;;;;;;;5002291;28;20273;-70
2023/04/02 01:03:21;;;;;;;13.90;10.07;;;;;;;;;;5021668;28;20357;-71
2023/04/02 01:06:09;;;;;;;12.33;9.33;;;;;;;;;;5012663;28;20589;-71
2023/04/02 01:08:40;;;;;;;15.77;10.07;;;;;;;;;;5013761;28;20178;-71
2023/04/02 01:11:12;;;;;;;13.60;9.67;;;;;;;;;;5005056;28;20206;-70
2023/04/02 01:13:50;;;;;;;16.07;10.83;;;;;;;;;;4998977;28;20293;-71
2023/04/02 01:16:23;;;;;;;15.10;10.40;;;;;;;;;;5000497;28;20191;-71
2023/04/02 01:18:51;;;;;;;12.37;9.77;;;;;;;;;;5006156;28;20271;-71
2023/04/02 01:21:27;;;;;;;21.47;11.20;;;;;;;;;;5012005;28;20187;-71
2023/04/02 01:23:56;;;;;;;17.53;10.70;;;;;;;;;;5006240;28;20305;-72
2023/04/02 01:26:40;;;;;;;17.30;10.90;;;;;;;;;;5012841;28;20179;-72
2023/04/02 01:29:12;;;;;;;14.93;9.57;;;;;;;;;;5009971;28;20175;-72
2023/04/02 01:31:38;;;;;;;17.03;10.70;;;;;;;;;;5008710;28;20532;-71
2023/04/02 01:34:05;;;;;;;16.17;11.23;;;;;;;;;;5007853;28;20228;-70
2023/04/02 01:36:34;;;;;;;12.93;10.70;;;;;;;;;;5010316;28;20210;-71
2023/04/02 01:39:09;;;;;;;14.93;10.40;;;;;;;;;;5001573;28;20711;-71
2023/04/02 01:41:55;;;;;;;14.00;9.47;;;;;;;;;;5004770;28;20372;-72
2023/04/02 01:44:24;;;;;;;15.40;9.83;;;;;;;;;;5002719;28;20210;-71
2023/04/02 01:46:49;;;;;;;17.47;10.63;;;;;;;;;;5009918;28;20646;-70
2023/04/02 01:49:17;;;;;;;13.30;10.33;;;;;;;;;;5010641;28;20404;-71
2023/04/02 01:51:44;;;;;;;12.50;9.77;;;;;;;;;;5010887;28;20202;-71
2023/04/02 01:54:11;;;;;;;16.53;9.70;;;;;;;;;;5006395;28;20187;-72
2023/04/02 01:56:36;;;;;;;14.60;9.57;;;;;;;;;;5007240;28;20241;-71
2023/04/02 01:59:04;;;;;;;11.90;9.17;;;;;;;;;;5010643;28;20187;-71
2023/04/02 02:02:05;;;;;;;15.20;9.73;;;;;;;;;;5010229;28;20697;-71
2023/04/02 02:04:31;;;;;;;13.87;9.83;;;;;;;;;;4944692;29;20292;-71
2023/04/02 02:06:59;;;;;;;15.40;10.17;;;;;;;;;;4994660;28;20187;-72
2023/04/02 02:09:26;;;;;;;12.93;9.20;;;;;;;;;;5005267;28;20203;-71
2023/04/02 02:11:51;;;;;;;15.80;9.97;;;;;;;;;;5009591;28;20715;-70
2023/04/02 02:14:18;;;;;;;13.03;10.13;;;;;;;;;;5003291;28;20182;-69
2023/04/02 02:16:44;;;;;;;12.40;9.13;;;;;;;;;;5010549;28;20205;-73
2023/04/02 02:19:22;;;;;;;13.53;9.00;;;;;;;;;;4999456;28;20270;-70
2023/04/02 02:21:49;;;;;;;16.17;9.70;;;;;;;;;;5009450;28;20210;-72
2023/04/02 02:24:17;;;;;;;13.27;9.30;;;;;;;;;;5009575;28;20221;-71
2023/04/02 02:26:43;;;;;;;16.37;9.33;;;;;;;;;;5006893;28;20600;-72
2023/04/02 02:29:13;;;;;;;13.33;9.17;;;;;;;;;;5005457;28;20183;-71
2023/04/02 02:31:40;;;;;;;14.47;10.00;;;;;;;;;;5006002;28;20175;-72
2023/04/02 02:34:11;;;;;;;18.53;8.70;;;;;;;;;;5001806;28;20704;-72
2023/04/02 02:36:36;;;;;;;14.10;9.50;;;;;;;;;;5002570;28;20557;-72
2023/04/02 02:39:02;;;;;;;12.90;8.57;;;;;;;;;;4999711;28;20184;-73
2023/04/02 02:41:32;;;;;;;16.77;9.03;;;;;;;;;;5010166;28;20175;-71
2023/04/02 02:44:03;;;;;;;14.33;9.57;;;;;;;;;;5009146;28;20562;-73
2023/04/02 02:46:30;;;;;;;13.40;8.90;;;;;;;;;;5007104;28;20519;-72
2023/04/02 02:48:57;;;;;;;14.20;8.80;;;;;;;;;;5010855;28;20183;-72
2023/04/02 02:51:26;;;;;;;15.57;8.93;;;;;;;;;;5005773;28;20176;-72
2023/04/02 02:53:53;;;;;;;12.97;8.53;;;;;;;;;;5008550;28;20199;-70
2023/04/02 02:56:20;;;;;;;12.50;8.40;;;;;;;;;;5008467;28;20179;-72
2023/04/02 02:58:45;;;;;;;13.07;8.87;;;;;;;;;;5007067;28;20553;-70
2023/04/02 03:01:10;;;;;;;12.23;7.80;;;;;;;;;;5012351;28;20175;-70
2023/04/02 03:03:36;;;;;;;11.93;7.73;;;;;;;;;;5014694;28;20559;-70
2023/04/02 03:06:04;;;;;;;12.97;8.20;;;;;;;;;;5012348;28;20240;-70
2023/04/02 03:08:35;;;;;;;11.73;7.97;;;;;;;;;;5005255;28;20179;-70
2023/04/02 03:11:09;;;;;;;11.07;7.70;;;;;;;;;;5007988;28;20286;-71
2023/04/02 03:13:37;;;;;;;10.87;8.00;;;;;;;;;;5011715;28;20206;-71
2023/04/02 03:16:03;;;;;;;11.50;7.37;;;;;;;;;;5003882;28;21135;-73
2023/04/02 03:18:43;;;;;;;12.80;8.03;;;;;;;;;;5009251;28;20602;-70
2023/04/02 03:21:08;;;;;;;12.30;7.20;;;;;;;;;;5006013;28;20266;-70
2023/04/02 03:23:35;;;;;;;11.27;8.03;;;;;;;;;;5014020;28;20302;-70
2023/04/02 03:26:03;;;;;;;10.93;6.77;;;;;;;;;;5003630;28;20184;-70
2023/04/02 03:28:30;;;;;;;9.73;6.77;;;;;;;;;;5009339;28;20188;-70
2023/04/02 03:31:03;;;;;;;11.60;8.40;;;;;;;;;;5005584;28;20194;-70
2023/04/02 03:33:40;;;;;;;10.20;6.37;;;;;;;;;;5011982;28;20211;-70
2023/04/02 03:36:11;;;;;;;11.00;7.53;;;;;;;;;;5007093;28;20656;-70
2023/04/02 03:38:42;;;;;;;9.77;7.33;;;;;;;;;;5009258;28;20178;-70
2023/04/02 03:41:15;;;;;;;10.80;7.67;;;;;;;;;;5008820;28;20262;-72
2023/04/02 03:43:46;;;;;;;10.87;7.50;;;;;;;;;;5011328;28;20349;-70
2023/04/02 03:46:11;;;;;;;10.23;7.13;;;;;;;;;;5015062;28;20183;-72
2023/04/02 03:48:44;;;;;;;10.70;6.80;;;;;;;;;;5007119;28;20167;-72
2023/04/02 03:51:19;;;;;;;9.07;7.13;;;;;;;;;;5006223;28;20175;-72
2023/04/02 03:53:45;;;;;;;12.30;6.80;;;;;;;;;;5005737;28;20205;-72
2023/04/02 03:56:22;;;;;;;10.80;6.70;;;;;;;;;;5012788;28;20179;-72
2023/04/02 03:58:52;;;;;;;11.70;8.07;;;;;;;;;;5012134;28;20244;-72
2023/04/02 04:01:44;;;;;;;12.23;7.57;;;;;;;;;;5011226;28;20195;-72
2023/04/02 04:04:13;;;;;;;13.53;7.43;;;;;;;;;;5006973;28;20206;-72
2023/04/02 04:06:40;;;;;;;12.53;7.63;;;;;;;;;;5007421;28;20210;-71
2023/04/02 04:09:21;;;;;;;10.67;7.17;;;;;;;;;;5011960;28;20183;-71
2023/04/02 04:11:51;;;;;;;8.67;7.00;;;;;;;;;;5006224;28;20170;-73
2023/04/02 04:14:19;;;;;;;9.33;7.10;;;;;;;;;;5007408;28;20194;-71
2023/04/02 04:16:46;;;;;;;11.07;8.27;;;;;;;;;;5001181;28;20570;-71
2023/04/02 04:19:11;;;;;;;13.03;7.30;;;;;;;;;;4996595;28;20191;-71
2023/04/02 04:21:36;;;;;;;12.53;7.43;;;;;;;;;;5012983;28;20253;-72
2023/04/02 04:24:06;;;;;;;10.60;7.47;;;;;;;;;;5008998;28;20218;-71
2023/04/02 04:26:38;;;;;;;10.27;7.30;;;;;;;;;;5000768;28;20550;-71
2023/04/02 04:29:18;;;;;;;12.43;7.63;;;;;;;;;;5009944;28;20187;-71
2023/04/02 04:31:48;;;;;;;12.00;9.23;;;;;;;;;;5006334;28;20259;-71
2023/04/02 04:34:28;;;;;;;15.23;7.70;;;;;;;;;;5013086;28;20230;-71
2023/04/02 04:36:56;;;;;;;11.87;7.27;;;;;;;;;;5003080;28;20638;-71
2023/04/02 04:39:28;;;;;;;14.80;8.13;;;;;;;;;;5010695;28;20191;-71
2023/04/02 04:41:54;;;;;;;10.30;7.17;;;;;;;;;;5006357;28;20187;-71
2023/04/02 04:44:23;;;;;;;13.73;9.57;;;;;;;;;;5005977;28;20214;-71
2023/04/02 04:47:10;;;;;;;12.93;7.77;;;;;;;;;;5013190;28;20306;-71
2023/04/02 04:49:42;;;;;;;9.40;6.77;;;;;;;;;;5006655;28;20210;-71
2023/04/02 04:52:21;;;;;;;9.47;7.23;;;;;;;;;;5005070;28;20253;-71
2023/04/02 04:54:46;;;;;;;13.10;7.10;;;;;;;;;;5012733;28;20214;-71
2023/04/02 04:57:34;;;;;;;12.57;7.50;;;;;;;;;;5006970;28;20190;-71
2023/04/02 05:00:05;;;;;;;10.57;7.13;;;;;;;;;;5004990;28;20199;-72
2023/04/02 05:02:39;;;;;;;12.23;7.40;;;;;;;;;;5012333;28;20623;-71
2023/04/02 05:05:15;;;;;;;9.87;6.70;;;;;;;;;;5012229;28;20207;-71
2023/04/02 05:07:51;;;;;;;8.87;7.13;;;;;;;;;;5012414;28;20182;-71
2023/04/02 05:10:35;;;;;;;10.13;6.57;;;;;;;;;;5011697;28;20179;-71
2023/04/02 05:13:04;;;;;;;10.97;6.53;;;;;;;;;;5010578;28;20556;-71
2023/04/02 05:15:37;;;;;;;12.20;7.53;;;;;;;;;;5006984;28;20188;-71
2023/04/02 05:18:05;;;;;;;9.37;6.67;;;;;;;;;;5009446;28;20567;-71
2023/04/02 05:20:39;;;;;;;8.80;6.50;;;;;;;;;;5005553;28;20187;-71
2023/04/02 05:23:19;;;;;;;8.13;6.03;;;;;;;;;;5003109;28;20207;-71
2023/04/02 05:26:00;;;;;;;9.13;6.50;;;;;;;;;;5003592;28;20183;-71
2023/04/02 05:28:32;;;;;;;7.93;6.20;;;;;;;;;;5006408;28;20238;-71
2023/04/02 05:31:02;;;;;;;7.40;6.17;;;;;;;;;;5004216;28;20190;-71
2023/04/02 05:33:28;;;;;;;9.13;6.00;;;;;;;;;;5014439;28;20297;-71
2023/04/02 05:35:56;;;;;;;10.10;6.97;;;;;;;;;;5011001;28;20661;-72
2023/04/02 05:38:24;;;;;;;9.20;6.40;;;;;;;;;;5005764;28;20540;-71
2023/04/02 05:40:53;;;;;;;10.90;6.67;;;;;;;;;;5009694;28;20278;-71
2023/04/02 05:43:21;;;;;;;11.17;6.50;;;;;;;;;;5013567;28;20692;-71
2023/04/02 05:45:51;;;;;;;10.27;5.77;;;;;;;;;;5009344;28;20673;-71
2023/04/02 05:48:18;;;;;;;11.20;6.03;;;;;;;;;;5013338;28;20257;-71
2023/04/02 05:50:47;;;;;;;10.23;6.70;;;;;;;;;;5011970;28;20190;-71
2023/04/02 05:53:25;;;;;;;7.53;5.43;;;;;;;;;;5012741;28;20209;-71
2023/04/02 05:55:54;;;;;;;10.57;6.13;;;;;;;;;;5007303;28;20258;-71
2023/04/02 05:58:35;;;;;;;6.53;5.03;;;;;;;;;;5001152;28;20186;-71
2023/04/02 06:01:14;;;;;;;8.50;5.17;;;;;;;;;;5002780;28;20529;-71
2023/04/02 06:03:39;;;;;;;6.80;4.43;;;;;;;;;;5001901;28;20215;-71
2023/04/02 06:06:11;;;;;;;5.87;4.27;;;;;;;;;;5004976;28;20183;-71
2023/04/02 06:08:38;;;;;;;7.67;4.23;;;;;;;;;;5011854;28;20186;-71
2023/04/02 06:11:08;;;;;;;7.60;3.67;;;;;;;;;;5012281;28;20183;-71
2023/04/02 06:13:34;;;;;;;5.83;3.17;;;;;;;;;;5011407;28;20256;-71
2023/04/02 06:16:00;;;;;;;5.90;3.57;;;;;;;;;;5011101;28;20193;-71
2023/04/02 06:18:27;;;;;;;5.97;4.30;;;;;;;;;;5008197;28;20189;-71
2023/04/02 06:20:52;;;;;;;6.83;3.33;;;;;;;;;;5010142;28;20186;-71
2023/04/02 06:23:24;;;;;;;4.77;4.03;;;;;;;;;;5012095;28;20209;-71
2023/04/02 06:25:49;;;;;;;5.00;2.50;;;;;;;;;;5002511;28;20741;-71
2023/04/02 06:28:16;;;;;;;3.03;2.43;;;;;;;;;;5010797;28;20215;-71
2023/04/02 06:30:41;;;;;;;5.93;2.53;;;;;;;;;;5009832;28;20174;-71
2023/04/02 06:33:08;;;;;;;4.63;2.90;;;;;;;;;;5013881;28;20221;-71
2023/04/02 06:35:35;;;;;;;4.80;2.70;;;;;;;;;;5008407;28;20656;-71
2023/04/02 06:38:02;;;;;;;7.80;3.37;;;;;;;;;;5008203;28;20240;-71
2023/04/02 06:40:33;;;;;;;6.67;2.97;;;;;;;;;;5011128;28;20175;-71
2023/04/02 06:43:00;;;;;;;3.70;2.73;;;;;;;;;;5015974;28;20199;-71
2023/04/02 06:45:29;;;;;;;5.53;3.30;;;;;;;;;;5010957;28;20207;-71
2023/04/02 06:47:56;;;;;;;7.37;3.13;;;;;;;;;;5013867;28;20175;-71
2023/04/02 06:50:23;;;;;;;4.07;3.00;;;;;;;;;;5012475;28;20162;-71
2023/04/02 06:52:50;;;;;;;4.20;3.10;;;;;;;;;;5015392;28;20202;-71
2023/04/02 06:55:19;;;;;;;5.50;3.47;;;;;;;;;;5007028;28;20190;-71
2023/04/02 06:57:44;;;;;;;3.07;2.77;;;;;;;;;;5005698;28;20516;-71
2023/04/02 07:00:29;;;;;;;6.63;3.30;;;;;;;;;;5007766;28;20262;-71
2023/04/02 07:02:56;;;;;;;7.70;3.80;;;;;;;;;;5001903;28;20215;-71
2023/04/02 07:05:22;;;;;;;8.07;3.57;;;;;;;;;;5009070;28;20649;-71
2023/04/02 07:07:47;;;;;;;5.93;3.80;;;;;;;;;;5011584;28;20175;-71
2023/04/02 07:10:12;;;;;;;5.10;4.33;;;;;;;;;;5013596;28;20268;-71
2023/04/02 07:12:37;;;;;;;10.10;4.17;;;;;;;;;;5012945;28;20660;-71
2023/04/02 07:15:03;;;;;;;5.37;4.27;;;;;;;;;;5015371;28;20179;-71
2023/04/02 07:17:29;;;;;;;7.27;4.10;;;;;;;;;;5005968;28;20187;-71
2023/04/02 07:19:54;;;;;;;6.87;4.77;;;;;;;;;;5008104;28;20258;-71
2023/04/02 07:22:20;;;;;;;7.63;4.17;;;;;;;;;;5010608;28;20193;-71
2023/04/02 07:24:46;;;;;;;5.07;3.77;;;;;;;;;;5013455;28;20589;-71
2023/04/02 07:27:12;;;;;;;6.80;4.80;;;;;;;;;;5015301;28;20178;-71
2023/04/02 07:29:41;;;;;;;9.73;4.93;;;;;;;;;;5009822;28;20179;-71
2023/04/02 07:32:10;;;;;;;7.57;5.40;;;;;;;;;;5014753;28;20199;-70
2023/04/02 07:34:36;;;;;;;7.30;4.43;;;;;;;;;;5008982;28;20194;-71
2023/04/02 07:37:01;;;;;;;6.60;5.17;;;;;;;;;;5006101;28;20198;-71
2023/04/02 07:39:27;;;;;;;8.30;5.27;;;;;;;;;;5006431;28;20645;-71
2023/04/02 07:41:54;;;;;;;6.97;4.93;;;;;;;;;;5009612;28;20752;-71
2023/04/02 07:44:19;;;;;;;8.50;5.07;;;;;;;;;;4999540;28;20226;-71
2023/04/02 07:46:44;;;;;;;5.97;5.30;;;;;;;;;;5011486;28;20867;-71
2023/04/02 07:49:10;;;;;;;8.43;5.47;;;;;;;;;;5011047;28;20189;-71
2023/04/02 07:51:36;;;;;;;6.50;4.90;;;;;;;;;;5009655;28;20175;-71
2023/04/02 07:54:01;;;;;;;6.77;5.27;;;;;;;;;;5003425;28;20190;-71
2023/04/02 07:56:27;;;;;;;5.80;4.37;;;;;;;;;;5006993;28;20185;-71
2023/04/02 07:58:53;;;;;;;8.67;5.27;;;;;;;;;;4999171;28;20650;-71
2023/04/02 08:01:20;;;;;;;6.20;4.63;;;;;;;;;;5006891;28;20228;-71
2023/04/02 08:03:45;;;;;;;11.90;7.13;;;;;;;;;;5000652;28;20261;-71
2023/04/02 08:06:11;;;;;;;6.10;4.53;;;;;;;;;;5008245;28;20585;-71
2023/04/02 08:08:36;;;;;;;6.57;4.73;;;;;;;;;;5010378;28;20732;-71
2023/04/02 08:11:01;;;;;;;4.70;4.27;;;;;;;;;;5010618;28;20262;-71
2023/04/02 08:13:27;;;;;;;7.77;5.13;;;;;;;;;;5007395;28;20245;-71
2023/04/02 08:15:52;;;;;;;7.43;4.80;;;;;;;;;;5005254;28;20202;-71
2023/04/02 08:18:20;;;;;;;7.77;4.67;;;;;;;;;;5008518;28;20219;-71
2023/04/02 08:20:46;;;;;;;5.20;4.63;;;;;;;;;;5010037;28;20675;-71
2023/04/02 08:23:14;;;;;;;6.30;4.57;;;;;;;;;;5006675;28;20206;-71
2023/04/02 08:25:39;;;;;;;5.47;4.23;;;;;;;;;;5003761;28;20172;-71
2023/04/02 08:28:04;;;;;;;7.00;4.07;;;;;;;;;;5011137;28;20241;-70
2023/04/02 08:30:30;;;;;;;5.20;4.40;;;;;;;;;;5010649;28;20172;-71
2023/04/02 08:32:55;;;;;;;3.90;3.60;;;;;;;;;;5008523;28;20434;-71
2023/04/02 08:35:22;;;;;;;4.73;4.20;;;;;;;;;;5002947;28;20698;-71
2023/04/02 08:37:47;;;;;;;6.73;4.83;;;;;;;;;;5011333;28;20185;-71
2023/04/02 08:40:18;;;;;;;5.20;3.87;;;;;;;;;;5005974;28;20567;-71
2023/04/02 08:42:46;;;;;;;4.23;3.90;;;;;;;;;;5009001;28;20221;-71
2023/04/02 08:45:17;;;;;;;3.93;3.50;;;;;;;;;;5004015;28;20210;-71
2023/04/02 08:47:43;;;;;;;5.37;3.80;;;;;;;;;;5002774;28;20187;-71
2023/04/02 08:50:16;;;;;;;4.93;3.73;;;;;;;;;;5010067;28;20253;-71
2023/04/02 08:52:41;;;;;;;5.30;3.60;;;;;;;;;;5008402;28;20223;-71
2023/04/02 08:55:16;;;;;;;4.23;3.10;;;;;;;;;;5011686;28;20725;-71
2023/04/02 08:58:04;;;;;;;4.73;3.70;;;;;;;;;;5008503;28;20184;-71
2023/04/02 09:00:33;;;;;;;4.37;3.77;;;;;;;;;;5008823;28;20583;-71
2023/04/02 09:03:01;;;;;;;5.83;3.70;;;;;;;;;;5007758;28;20203;-71
2023/04/02 09:05:31;;;;;;;5.03;3.63;;;;;;;;;;5011239;28;20187;-71
2023/04/02 09:07:58;;;;;;;4.00;3.70;;;;;;;;;;5009510;28;20258;-71
2023/04/02 09:10:26;;;;;;;7.07;3.77;;;;;;;;;;5003642;28;20191;-71
2023/04/02 09:12:52;;;;;;;5.67;3.30;;;;;;;;;;5003203;28;20210;-71
2023/04/02 09:15:33;;;;;;;3.70;3.23;;;;;;;;;;5009606;28;20186;-71
2023/04/02 09:18:15;;;;;;;4.83;3.67;;;;;;;;;;5010533;28;20214;-71
2023/04/02 09:20:48;;;;;;;4.63;3.37;;;;;;;;;;5052474;28;20932;-71
2023/04/02 09:23:15;;;;;;;4.33;3.63;;;;;;;;;;5025798;28;20678;-72
2023/04/02 09:25:46;;;;;;;4.40;3.67;;;;;;;;;;5021230;28;20197;-71
2023/04/02 09:28:11;;;;;;;5.43;3.87;;;;;;;;;;5022284;28;20202;-71
2023/04/02 09:30:37;;;;;;;5.17;3.97;;;;;;;;;;5028878;28;20185;-71
2023/04/02 09:33:06;;;;;;;4.33;3.93;;;;;;;;;;5049925;22;20714;-66
2023/04/02 09:35:32;;;;;;;7.30;4.83;;;;;;;;;;5035794;28;20602;-66
2023/04/02 09:38:06;;;;;;;7.53;4.20;;;;;;;;;;5038051;28;20181;-66
2023/04/02 09:40:32;;;;;;;5.67;4.60;;;;;;;;;;5049669;28;20576;-67
2023/04/02 09:43:08;;;;;;;7.90;5.10;;;;;;;;;;5044068;28;20194;-67
2023/04/02 09:45:34;;;;;;;5.20;4.70;;;;;;;;;;5048725;28;20228;-67
2023/04/02 09:47:59;;;;;;;8.70;5.47;;;;;;;;;;5046806;28;20198;-67
2023/04/02 09:50:26;;;;;;;5.57;5.17;;;;;;;;;;5048389;28;20212;-67
2023/04/02 09:52:51;;;;;;;5.83;4.80;;;;;;;;;;5044123;28;20232;-69
2023/04/02 09:55:20;;;;;;;6.73;5.40;;;;;;;;;;5046085;28;20209;-68
2023/04/02 09:57:46;;;;;;;7.00;5.83;;;;;;;;;;5047630;28;20178;-67
2023/04/02 10:00:26;;;;;;;8.00;5.10;;;;;;;;;;5049071;28;20198;-67
2023/04/02 10:03:05;;;;;;;5.10;4.70;;;;;;;;;;5046828;28;20198;-69
2023/04/02 10:05:31;;;;;;;5.50;5.00;;;;;;;;;;5050558;28;20248;-67
2023/04/02 10:08:05;;;;;;;6.70;5.27;;;;;;;;;;5045411;28;20285;-67
2023/04/02 10:10:35;;;;;;;8.47;5.77;;;;;;;;;;5045473;28;20181;-67
2023/04/02 10:13:03;;;;;;;5.47;4.57;;;;;;;;;;5046095;28;20220;-67
2023/04/02 10:15:38;;;;;;;5.13;3.70;;;;;;;;;;5045947;28;20640;-67
2023/04/02 10:18:11;;;;;;;5.67;4.37;;;;;;;;;;5041057;28;20186;-66
2023/04/02 10:20:38;;;;;;;4.37;3.70;;;;;;;;;;5047388;28;20292;-67
2023/04/02 10:23:03;;;;;;;4.90;2.93;;;;;;;;;;5046686;28;20277;-67
2023/04/02 10:25:31;;;;;;;5.10;4.30;;;;;;;;;;5047800;28;20227;-67
2023/04/02 10:28:01;;;;;;;4.10;2.93;;;;;;;;;;5046349;28;20178;-67
2023/04/02 10:30:29;;;;;;;3.60;2.63;;;;;;;;;;5043423;28;20192;-67
2023/04/02 10:32:58;;;;;;;3.30;2.60;;;;;;;;;;5032128;28;20222;-68
2023/04/02 10:35:35;;;;;;;6.07;3.00;;;;;;;;;;5033112;28;20626;-67
2023/04/02 10:38:12;;;;;;;4.60;2.50;;;;;;;;;;5031553;28;20182;-67
2023/04/02 10:40:43;;;;;;;4.17;2.50;;;;;;;;;;5033374;28;20205;-67
2023/04/02 10:43:23;;;;;;;2.50;2.30;;;;;;;;;;5032451;28;20194;-67
2023/04/02 10:45:49;;;;;;;3.40;2.13;;;;;;;;;;5032823;28;20264;-67
2023/04/02 10:48:23;;;;;;;5.80;2.50;;;;;;;;;;5033101;28;20231;-67
2023/04/02 10:50:58;;;;;;;5.30;2.20;;;;;;;;;;5027917;28;20293;-67
2023/04/02 10:53:43;;;;;;;7.50;2.07;;;;;;;;;;5031582;28;20667;-67
2023/04/02 10:56:11;;;;;;;3.87;1.90;;;;;;;;;;5031235;28;20194;-68
2023/04/02 10:58:38;;;;;;;4.53;1.80;;;;;;;;;;5033061;28;20644;-68
2023/04/02 11:01:06;;;;;;;3.60;1.90;;;;;;;;;;5028805;28;20190;-68
2023/04/02 11:03:40;;;;;;;4.47;2.00;;;;;;;;;;5029455;28;20202;-68
2023/04/02 11:40:18;;;;;;;3.42;1.85;;;;;;;;;;5058709;28;20555;-77
2023/04/02 11:42:44;;;;;;;7.53;2.63;;;;;;;;;;5047346;28;20201;-77
2023/04/02 11:45:27;;;;;;;6.72;1.98;;;;;;;;;;5020828;28;20227;-77
2023/04/02 11:47:58;;;;;;;3.88;2.03;;;;;;;;;;4991332;28;65177;-77
2023/04/02 11:50:26;;;;;;;4.07;2.47;;;;;;;;;;5039785;28;20205;-79
2023/04/02 11:52:52;;;;;;;7.35;2.25;;;;;;;;;;5025026;28;20231;-78
2023/04/02 11:55:21;;;;;;;5.35;2.38;;;;;;;;;;5020907;28;20265;-80
2023/04/02 11:57:53;;;;;;;4.43;2.03;;;;;;;;;;5025409;28;20221;-76
2023/04/02 12:00:32;;;;;;;2.72;2.10;;;;;;;;;;5031372;28;20202;-77
2023/04/02 12:03:06;;;;;;;4.88;2.53;;;;;;;;;;5031111;28;20181;-78
2023/04/02 12:05:38;;;;;;;2.58;1.70;;;;;;;;;;5034856;28;20266;-78
2023/04/02 12:08:18;;;;;;;3.47;2.10;;;;;;;;;;5026138;28;20244;-77
2023/04/02 12:10:52;;;;;;;4.20;2.33;;;;;;;;;;5024694;28;20326;-78
2023/04/02 12:13:40;;;;;;;4.80;2.53;;;;;;;;;;5027352;28;20260;-77
2023/04/02 12:16:10;;;;;;;4.72;1.77;;;;;;;;;;5028898;28;20624;-79
2023/04/02 12:18:40;;;;;;;4.65;2.20;;;;;;;;;;5040803;28;20198;-77
2023/04/02 12:21:05;;;;;;;2.20;2.03;;;;;;;;;;5036458;28;20199;-77
2023/04/02 12:23:32;;;;;;;2.28;1.90;;;;;;;;;;5026887;28;20230;-77
2023/04/02 12:25:57;;;;;;;3.35;2.10;;;;;;;;;;5033721;28;20375;-78
2023/04/02 12:28:23;;;;;;;3.20;1.97;;;;;;;;;;5018665;28;20589;-77
2023/04/02 12:30:49;;;;;;;3.15;2.22;;;;;;;;;;5026648;28;20445;-77
2023/04/02 12:33:18;;;;;;;8.75;2.25;;;;;;;;;;5024400;28;20206;-78
2023/04/02 12:35:44;;;;;;;3.78;2.03;;;;;;;;;;5029961;28;20182;-78
2023/04/02 12:38:22;;;;;;;3.75;1.80;;;;;;;;;;5018425;28;20207;-77
2023/04/02 12:40:52;;;;;;;2.72;1.85;;;;;;;;;;5031538;28;20196;-78
2023/04/02 12:43:25;;;;;;;5.03;2.38;;;;;;;;;;5021585;28;20175;-78
2023/04/02 12:45:51;;;;;;;3.90;2.13;;;;;;;;;;5027207;28;20601;-78
2023/04/02 12:48:17;;;;;;;5.07;1.83;;;;;;;;;;5016225;28;20183;-77
2023/04/02 12:50:42;;;;;;;4.95;2.13;;;;;;;;;;5017755;28;20570;-77
2023/04/02 12:53:17;;;;;;;3.05;2.40;;;;;;;;;;5015689;28;20236;-77
2023/04/02 12:55:45;;;;;;;2.10;1.92;;;;;;;;;;5023079;28;20183;-77
2023/04/02 12:58:23;;;;;;;3.33;1.80;;;;;;;;;;5030200;28;20673;-77
2023/04/02 13:00:49;;;;;;;3.55;2.10;;;;;;;;;;5014383;28;20203;-78
2023/04/02 13:03:16;;;;;;;3.17;2.30;;;;;;;;;;5020411;28;20637;-77
2023/04/02 13:06:08;;;;;;;2.50;2.17;;;;;;;;;;5018002;28;20187;-77
2023/04/02 13:08:37;;;;;;;3.05;1.80;;;;;;;;;;5015638;28;20203;-78
2023/04/02 13:11:03;;;;;;;6.45;3.65;;;;;;;;;;5023832;28;20194;-78
2023/04/02 13:13:39;;;;;;;4.88;2.13;;;;;;;;;;5011821;28;20178;-78
2023/04/02 13:16:04;;;;;;;3.25;2.30;;;;;;;;;;5007313;28;20213;-77
2023/04/02 13:18:30;;;;;;;3.03;2.17;;;;;;;;;;5012166;28;20253;-78
2023/04/02 13:21:06;;;;;;;3.50;2.33;;;;;;;;;;5018253;28;20255;-78
2023/04/02 13:23:33;;;;;;;3.00;2.05;;;;;;;;;;5016170;28;20171;-77
2023/04/02 13:26:10;;;;;;;4.30;1.98;;;;;;;;;;5005852;28;20171;-78
2023/04/02 13:28:35;;;;;;;3.22;2.05;;;;;;;;;;5013239;28;20649;-78
2023/04/02 13:31:00;;;;;;;2.72;2.03;;;;;;;;;;5017243;28;20199;-78
2023/04/02 13:33:26;;;;;;;3.90;2.45;;;;;;;;;;5008422;28;20182;-77
2023/04/02 13:35:51;;;;;;;2.97;2.13;;;;;;;;;;5020680;28;20189;-78
2023/04/02 13:38:16;;;;;;;2.83;1.85;;;;;;;;;;5018886;28;20646;-78
2023/04/02 13:40:42;;;;;;;2.90;2.00;;;;;;;;;;5028044;28;20192;-78
2023/04/02 13:43:10;;;;;;;2.38;1.98;;;;;;;;;;5014152;28;20248;-78
2023/04/02 13:45:36;;;;;;;4.93;2.15;;;;;;;;;;5008782;28;20188;-79
2023/04/02 13:48:02;;;;;;;3.60;2.28;;;;;;;;;;5024662;28;20171;-78
2023/04/02 13:50:28;;;;;;;2.17;1.67;;;;;;;;;;5012697;28;20264;-79
2023/04/02 13:52:56;;;;;;;2.28;1.83;;;;;;;;;;5018418;28;20640;-78
2023/04/02 13:55:23;;;;;;;2.90;2.03;;;;;;;;;;5018224;28;20221;-78
2023/04/02 13:57:49;;;;;;;4.47;2.38;;;;;;;;;;5010192;28;20190;-78
2023/04/02 14:00:15;;;;;;;2.97;2.00;;;;;;;;;;5013206;28;20187;-78
2023/04/02 14:02:43;;;;;;;2.33;1.80;;;;;;;;;;5021086;28;20254;-78
2023/04/02 14:05:35;;;;;;;3.28;2.10;;;;;;;;;;5017960;28;20257;-79
2023/04/02 14:08:05;;;;;;;5.03;1.95;;;;;;;;;;5040951;28;20228;-79
2023/04/02 14:10:36;;;;;;;2.53;1.85;;;;;;;;;;5010140;28;20204;-78
2023/04/02 14:13:02;;;;;;;3.40;2.20;;;;;;;;;;5026399;28;20174;-79
2023/04/02 14:15:27;;;;;;;3.53;2.03;;;;;;;;;;5023143;28;20674;-79
2023/04/02 14:18:07;;;;;;;3.28;1.70;;;;;;;;;;5031878;28;20198;-78
2023/04/02 14:20:45;;;;;;;5.90;2.80;;;;;;;;;;5018027;28;20234;-78
2023/04/02 14:23:23;;;;;;;2.85;1.65;;;;;;;;;;5024454;28;20182;-78
2023/04/02 14:26:03;;;;;;;1.90;1.58;;;;;;;;;;5016692;28;20237;-78
2023/04/02 14:28:48;;;;;;;2.17;1.85;;;;;;;;;;5020580;28;20176;-78
2023/04/02 14:31:31;;;;;;;2.83;1.55;;;;;;;;;;5027110;28;20181;-79
2023/04/02 14:33:56;;;;;;;5.18;1.77;;;;;;;;;;5003555;28;20182;-79
2023/04/02 14:36:22;;;;;;;2.10;1.15;;;;;;;;;;5010213;28;20175;-78
2023/04/02 14:39:22;;;;;;;2.25;1.45;;;;;;;;;;5004168;28;21031;-79
2023/04/02 14:41:54;;;;;;;2.20;1.17;;;;;;;;;;4991021;28;20748;-79
2023/04/02 14:44:22;;;;;;;1.60;1.50;;;;;;;;;;5007857;28;20191;-79
2023/04/02 14:46:48;;;;;;;2.17;1.63;;;;;;;;;;5006845;28;20175;-79
2023/04/02 14:49:23;;;;;;;1.83;1.58;;;;;;;;;;5012342;28;20221;-78
2023/04/02 14:51:55;;;;;;;2.88;1.40;;;;;;;;;;5022609;28;20665;-78
2023/04/02 14:54:30;;;;;;;3.80;1.60;;;;;;;;;;5025205;28;20295;-79
2023/04/02 14:57:08;;;;;;;3.03;1.70;;;;;;;;;;5013112;28;20179;-79
2023/04/02 15:00:10;;;;;;;2.65;1.50;;;;;;;;;;5010930;28;20210;-79
2023/04/02 15:02:41;;;;;;;2.80;1.70;;;;;;;;;;4994366;28;20254;-79
2023/04/02 15:05:06;;;;;;;2.72;1.92;;;;;;;;;;5011213;28;20194;-78
2023/04/02 15:07:37;;;;;;;3.63;1.50;;;;;;;;;;5002111;28;20544;-78
2023/04/02 15:10:03;;;;;;;2.85;1.25;;;;;;;;;;5011956;28;20627;-78
2023/04/02 15:12:31;;;;;;;2.15;1.90;;;;;;;;;;5005338;28;20175;-78
2023/04/02 15:15:19;;;;;;;3.97;1.75;;;;;;;;;;5017378;28;20232;-78
2023/04/02 15:17:45;;;;;;;2.05;1.33;;;;;;;;;;5019202;28;20614;-78
2023/04/02 15:20:14;;;;;;;3.00;1.60;;;;;;;;;;5006650;28;20282;-79
2023/04/02 15:22:46;;;;;;;2.17;1.70;;;;;;;;;;5005887;28;20194;-78
2023/04/02 15:25:11;;;;;;;4.57;1.23;;;;;;;;;;5020475;28;20174;-78
2023/04/02 15:27:51;;;;;;;3.08;1.70;;;;;;;;;;5009630;28;20171;-78
2023/04/02 15:30:25;;;;;;;1.45;1.35;;;;;;;;;;5008739;28;20263;-79